createdAt,value
2023-01-26T00:02:21.709Z,9.90
2023-01-26T00:04:48.843Z,10.17
2023-01-26T00:07:15.971Z,9.43
2023-01-26T00:09:43.121Z,9.50
2023-01-26T00:12:10.262Z,11.40
2023-01-26T00:14:49.986Z,10.90
2023-01-26T00:17:25.877Z,11.73
2023-01-26T00:19:54.355Z,11.40
2023-01-26T00:22:21.936Z,9.87
2023-01-26T00:24:49.143Z,9.07
2023-01-26T00:27:16.291Z,8.80
2023-01-26T00:29:43.398Z,8.73
2023-01-26T00:32:10.545Z,32.93
2023-01-26T00:34:37.715Z,13.03
2023-01-26T00:37:04.838Z,10.63
2023-01-26T00:39:31.949Z,9.27
2023-01-26T00:42:11.428Z,10.03
2023-01-26T00:44:38.867Z,8.67
2023-01-26T00:47:10.382Z,9.37
2023-01-26T00:49:37.514Z,8.03
2023-01-26T00:52:04.684Z,9.97
2023-01-26T00:54:31.871Z,8.53
2023-01-26T00:56:59.049Z,8.33
2023-01-26T00:59:26.245Z,7.77
2023-01-26T01:01:54.045Z,9.80
2023-01-26T01:04:21.307Z,7.80
2023-01-26T01:06:48.490Z,7.50
2023-01-26T01:09:15.689Z,8.03
2023-01-26T01:11:43.783Z,7.93
2023-01-26T01:14:10.962Z,7.73
2023-01-26T01:16:38.211Z,8.40
2023-01-26T01:19:05.379Z,8.80
2023-01-26T01:21:32.899Z,7.50
2023-01-26T01:24:00.575Z,8.30
2023-01-26T01:26:27.804Z,7.60
2023-01-26T01:28:58.197Z,7.87
2023-01-26T01:31:26.068Z,7.73
2023-01-26T01:33:54.102Z,7.83
2023-01-26T01:36:21.226Z,7.40
2023-01-26T01:38:48.430Z,7.87
2023-01-26T01:41:16.580Z,7.40
2023-01-26T01:43:43.697Z,7.77
2023-01-26T01:46:29.413Z,9.03
2023-01-26T01:49:00.617Z,8.13
2023-01-26T01:51:38.669Z,8.67
2023-01-26T01:54:08.244Z,9.77
2023-01-26T01:56:35.384Z,10.80
2023-01-26T01:59:02.747Z,11.00
2023-01-26T02:01:29.860Z,11.40
2023-01-26T02:03:57.990Z,9.67
2023-01-26T02:06:30.280Z,10.50
2023-01-26T02:08:57.576Z,9.27
2023-01-26T02:11:32.296Z,9.67
2023-01-26T02:13:59.481Z,9.27
2023-01-26T02:16:26.629Z,9.30
2023-01-26T02:18:53.814Z,10.10
2023-01-26T02:21:21.856Z,10.40
2023-01-26T02:23:52.173Z,9.97
2023-01-26T02:26:19.864Z,9.73
2023-01-26T02:28:47.384Z,9.97
2023-01-26T02:31:14.663Z,9.10
2023-01-26T02:33:42.083Z,8.73
2023-01-26T02:36:11.103Z,9.33
2023-01-26T02:38:41.926Z,8.70
2023-01-26T02:41:12.266Z,9.30
2023-01-26T02:43:39.424Z,9.30
2023-01-26T02:46:06.608Z,11.27
2023-01-26T02:48:52.525Z,11.03
2023-01-26T02:51:19.667Z,11.23
2023-01-26T02:53:48.108Z,10.90
2023-01-26T02:56:15.271Z,11.03
2023-01-26T02:58:42.429Z,10.20
2023-01-26T03:01:09.602Z,10.53
2023-01-26T03:03:42.826Z,10.40
2023-01-26T03:06:10.632Z,11.47
2023-01-26T03:08:37.826Z,11.57
2023-01-26T03:11:05.311Z,11.27
2023-01-26T03:13:32.451Z,12.33
2023-01-26T03:16:06.748Z,11.63
2023-01-26T03:18:53.619Z,11.40
2023-01-26T03:21:39.795Z,10.57
2023-01-26T03:24:25.424Z,9.83
2023-01-26T03:27:11.360Z,10.07
2023-01-26T03:29:38.476Z,11.30
2023-01-26T03:32:05.783Z,10.27
2023-01-26T03:34:33.043Z,10.27
2023-01-26T03:37:00.387Z,9.53
2023-01-26T03:39:46.387Z,9.37
2023-01-26T03:42:32.480Z,8.63
2023-01-26T03:45:18.505Z,9.60
2023-01-26T03:48:04.363Z,8.63
2023-01-26T03:50:50.324Z,8.93
2023-01-26T03:53:36.603Z,8.33
2023-01-26T03:56:22.136Z,8.47
2023-01-26T03:58:53.532Z,8.97
2023-01-26T04:01:28.236Z,10.07
2023-01-26T04:04:14.628Z,12.93
2023-01-26T04:07:03.798Z,12.33
2023-01-26T04:09:31.365Z,14.30
2023-01-26T04:11:58.582Z,14.67
2023-01-26T04:14:50.045Z,17.00
2023-01-26T04:17:36.745Z,18.60
2023-01-26T04:20:23.280Z,20.23
2023-01-26T04:22:50.419Z,19.03
2023-01-26T04:25:18.434Z,20.03
2023-01-26T04:27:46.178Z,20.37
2023-01-26T04:30:13.856Z,17.97
2023-01-26T04:32:41.150Z,17.30
2023-01-26T04:35:08.473Z,15.33
2023-01-26T04:37:35.646Z,15.63
2023-01-26T04:40:04.245Z,15.13
2023-01-26T04:42:31.462Z,13.03
2023-01-26T04:44:58.592Z,12.93
2023-01-26T04:47:27.587Z,11.00
2023-01-26T04:49:56.086Z,12.50
2023-01-26T04:52:23.256Z,13.80
2023-01-26T04:54:50.429Z,13.70
2023-01-26T04:57:20.547Z,14.77
2023-01-26T04:59:47.658Z,14.40
2023-01-26T05:02:14.794Z,13.77
2023-01-26T05:04:41.984Z,14.40
2023-01-26T05:07:09.131Z,13.17
2023-01-26T05:09:36.251Z,13.13
2023-01-26T05:12:23.350Z,13.67
2023-01-26T05:14:50.506Z,14.70
2023-01-26T05:17:17.680Z,14.50
2023-01-26T05:19:44.838Z,14.90
2023-01-26T05:22:12.710Z,13.17
2023-01-26T05:24:39.947Z,12.47
2023-01-26T05:27:22.415Z,13.07
2023-01-26T05:29:50.111Z,13.73
2023-01-26T05:32:17.292Z,15.20
2023-01-26T05:34:44.450Z,15.97
2023-01-26T05:37:14.547Z,16.63
2023-01-26T05:39:42.156Z,17.30
2023-01-26T05:42:09.378Z,15.73
2023-01-26T05:44:36.494Z,15.83
2023-01-26T05:47:03.605Z,14.73
2023-01-26T05:49:30.757Z,15.27
2023-01-26T05:51:57.901Z,13.13
2023-01-26T05:54:25.117Z,12.47
2023-01-26T05:56:53.400Z,11.50
2023-01-26T05:59:20.526Z,11.70
2023-01-26T06:01:47.645Z,12.13
2023-01-26T06:04:14.815Z,12.27
2023-01-26T06:06:41.953Z,13.90
2023-01-26T06:09:09.066Z,14.73
2023-01-26T06:11:36.218Z,17.17
2023-01-26T06:14:03.803Z,13.43
2023-01-26T06:16:31.016Z,13.30
2023-01-26T06:18:58.203Z,12.30
2023-01-26T06:21:25.319Z,13.77
2023-01-26T06:23:52.466Z,12.57
2023-01-26T06:26:19.629Z,13.07
2023-01-26T06:28:46.747Z,14.03
2023-01-26T06:31:14.382Z,12.97
2023-01-26T06:33:41.617Z,12.77
2023-01-26T06:36:12.659Z,12.07
2023-01-26T06:38:39.886Z,11.70
2023-01-26T06:41:07.940Z,11.83
2023-01-26T06:43:35.541Z,11.67
2023-01-26T06:46:03.777Z,11.53
2023-01-26T06:48:31.371Z,12.20
2023-01-26T06:50:59.095Z,11.33
2023-01-26T06:53:40.096Z,11.83
2023-01-26T06:56:07.262Z,12.00
2023-01-26T06:58:34.377Z,12.07
2023-01-26T07:01:01.605Z,13.17
2023-01-26T07:03:28.800Z,13.87
2023-01-26T07:05:55.960Z,14.10
2023-01-26T07:08:23.089Z,15.63
2023-01-26T07:10:50.509Z,15.73
2023-01-26T07:13:17.731Z,15.57
2023-01-26T07:15:44.896Z,20.20
2023-01-26T07:18:12.014Z,28.40
2023-01-26T07:20:39.139Z,31.37
2023-01-26T07:23:06.284Z,30.80
2023-01-26T07:25:33.395Z,29.10
2023-01-26T07:28:00.536Z,28.23
2023-01-26T07:30:27.862Z,28.63
2023-01-26T07:32:54.969Z,24.33
2023-01-26T07:35:22.090Z,20.77
2023-01-26T07:37:49.239Z,17.37
2023-01-26T07:40:16.656Z,17.03
2023-01-26T07:42:43.800Z,17.10
2023-01-26T07:45:11.181Z,22.20
2023-01-26T07:47:38.332Z,19.60
2023-01-26T07:50:07.267Z,19.70
2023-01-26T07:52:34.426Z,27.10
2023-01-26T07:55:01.533Z,20.27
2023-01-26T07:57:28.659Z,18.83
2023-01-26T07:59:55.858Z,18.73
2023-01-26T08:02:23.008Z,19.33
2023-01-26T08:04:50.190Z,20.53
2023-01-26T08:07:17.639Z,19.93
2023-01-26T08:09:44.781Z,18.10
2023-01-26T08:12:11.961Z,18.10
2023-01-26T08:14:46.692Z,20.80
2023-01-26T08:17:17.265Z,19.67
2023-01-26T08:19:44.744Z,22.00
2023-01-26T08:22:11.878Z,22.00
2023-01-26T08:24:39.011Z,18.63
2023-01-26T08:27:06.164Z,17.37
2023-01-26T08:29:33.282Z,18.00
2023-01-26T08:32:00.471Z,19.10
2023-01-26T08:34:27.659Z,20.57
2023-01-26T08:36:54.769Z,19.93
2023-01-26T08:39:21.894Z,19.70
2023-01-26T08:41:49.129Z,22.30
2023-01-26T08:44:16.637Z,19.43
2023-01-26T08:46:46.494Z,21.47
2023-01-26T08:49:13.747Z,18.63
2023-01-26T08:51:40.854Z,18.40
2023-01-26T08:54:11.257Z,19.80
2023-01-26T08:56:38.462Z,19.33
2023-01-26T08:59:05.657Z,24.43
2023-01-26T09:01:32.866Z,23.23
2023-01-26T09:04:00.496Z,20.03
2023-01-26T09:06:28.413Z,22.57
2023-01-26T09:08:55.614Z,28.47
2023-01-26T09:11:22.752Z,25.30
2023-01-26T09:13:58.840Z,21.80
2023-01-26T09:16:26.065Z,18.63
2023-01-26T09:18:53.399Z,21.93
2023-01-26T09:21:20.629Z,18.70
2023-01-26T09:23:47.881Z,19.60
2023-01-26T09:26:15.087Z,18.17
2023-01-26T09:28:42.199Z,21.83
2023-01-26T09:31:10.770Z,22.17
2023-01-26T09:33:38.002Z,21.40
2023-01-26T09:36:08.555Z,30.33
2023-01-26T09:38:35.729Z,23.07
2023-01-26T09:41:06.197Z,25.27
2023-01-26T09:43:41.724Z,24.83
2023-01-26T09:46:25.148Z,29.07
2023-01-26T09:48:58.401Z,24.77
2023-01-26T09:51:27.396Z,23.07
2023-01-26T09:53:55.420Z,22.93
2023-01-26T09:56:23.102Z,21.40
2023-01-26T09:59:10.508Z,21.37
2023-01-26T10:01:37.803Z,17.53
2023-01-26T10:04:06.230Z,20.33
2023-01-26T10:06:33.489Z,23.53
2023-01-26T10:09:15.503Z,18.37
2023-01-26T10:11:47.108Z,18.97
2023-01-26T10:14:16.392Z,18.97
2023-01-26T10:16:44.562Z,18.60
2023-01-26T10:19:13.392Z,19.33
2023-01-26T10:21:41.501Z,19.27
2023-01-26T10:24:10.041Z,19.03
2023-01-26T10:26:37.251Z,17.60
2023-01-26T10:29:04.514Z,18.00
2023-01-26T10:31:32.798Z,17.90
2023-01-26T10:34:00.223Z,17.40
2023-01-26T10:36:30.588Z,16.83
2023-01-26T10:39:03.525Z,18.13
2023-01-26T10:41:30.644Z,19.60
2023-01-26T10:44:02.633Z,19.60
2023-01-26T10:46:39.408Z,22.57
2023-01-26T10:49:09.366Z,18.10
2023-01-26T10:51:37.167Z,21.40
2023-01-26T10:54:16.325Z,18.30
2023-01-26T10:56:47.169Z,20.07
2023-01-26T10:59:15.989Z,22.83
2023-01-26T11:01:53.306Z,22.17
2023-01-26T11:04:20.520Z,24.23
2023-01-26T11:06:47.681Z,23.23
2023-01-26T11:09:14.812Z,21.87
2023-01-26T11:11:42.121Z,17.90
2023-01-26T11:14:27.147Z,20.23
2023-01-26T11:17:08.614Z,17.60
2023-01-26T11:19:55.728Z,16.90
2023-01-26T11:22:28.953Z,18.37
2023-01-26T11:25:09.097Z,16.27
2023-01-26T11:27:47.490Z,17.23
2023-01-26T11:30:23.678Z,19.17
2023-01-26T11:32:59.743Z,24.43
2023-01-26T11:35:42.111Z,15.00
2023-01-26T11:38:15.286Z,14.43
2023-01-26T11:40:47.970Z,13.83
2023-01-26T11:43:30.463Z,16.00
2023-01-26T11:46:17.860Z,15.83
2023-01-26T11:49:04.060Z,14.70
2023-01-26T11:51:37.064Z,19.80
2023-01-26T11:54:22.212Z,17.10
2023-01-26T11:56:51.024Z,16.23
2023-01-26T11:59:37.103Z,15.43
2023-01-26T12:02:16.590Z,20.10
2023-01-26T12:04:45.447Z,15.63
2023-01-26T12:07:13.944Z,14.30
2023-01-26T12:09:43.519Z,12.90
2023-01-26T12:12:11.502Z,14.87
2023-01-26T12:14:46.073Z,15.37
2023-01-26T12:17:31.868Z,22.77
2023-01-26T12:20:19.758Z,23.93
2023-01-26T12:22:50.423Z,19.27
2023-01-26T12:25:23.712Z,28.03
2023-01-26T12:27:54.379Z,29.10
2023-01-26T12:30:26.377Z,26.10
2023-01-26T12:32:53.669Z,17.43
2023-01-26T12:35:23.724Z,20.93
2023-01-26T12:38:08.705Z,17.97
2023-01-26T12:40:56.021Z,16.30
2023-01-26T12:43:33.604Z,20.83
2023-01-26T12:46:00.964Z,20.13
2023-01-26T12:48:48.469Z,22.20
2023-01-26T12:51:17.547Z,22.33
2023-01-26T12:53:47.872Z,25.83
2023-01-26T12:56:44.351Z,19.73
2023-01-26T12:59:46.277Z,17.67
2023-01-26T13:02:16.234Z,21.40
2023-01-26T13:04:44.029Z,15.63
2023-01-26T13:07:26.372Z,14.20
2023-01-26T13:10:12.725Z,26.87
2023-01-26T13:12:47.017Z,24.70
2023-01-26T13:15:14.768Z,29.57
2023-01-26T13:17:42.863Z,37.40
2023-01-26T13:20:36.309Z,29.77
2023-01-26T13:23:03.459Z,27.17
2023-01-26T13:25:33.757Z,28.87
2023-01-26T13:28:01.702Z,24.50
2023-01-26T13:30:31.727Z,26.23
2023-01-26T13:33:05.070Z,28.73
2023-01-26T13:35:32.284Z,24.07
2023-01-26T13:38:08.113Z,25.37
2023-01-26T13:40:36.362Z,25.13
2023-01-26T13:43:06.111Z,27.77
2023-01-26T13:45:39.375Z,34.17
2023-01-26T13:48:08.193Z,29.17
2023-01-26T13:50:37.781Z,23.40
2023-01-26T13:53:23.593Z,23.80
2023-01-26T13:55:51.416Z,25.27
2023-01-26T13:58:18.778Z,26.00
2023-01-26T14:01:05.243Z,38.67
2023-01-26T14:03:32.470Z,82.37
2023-01-26T14:06:00.393Z,58.13
2023-01-26T14:08:27.612Z,40.97
2023-01-26T14:10:54.818Z,26.97
2023-01-26T14:13:28.401Z,33.10
2023-01-26T14:16:00.514Z,27.53
2023-01-26T14:18:27.764Z,45.13
2023-01-26T14:21:18.227Z,42.83
2023-01-26T14:23:45.499Z,48.67
2023-01-26T14:26:15.631Z,41.77
2023-01-26T14:28:43.315Z,32.93
2023-01-26T14:31:11.957Z,28.83
2023-01-26T14:33:39.260Z,29.63
2023-01-26T14:36:06.759Z,26.17
2023-01-26T14:38:44.313Z,26.17
2023-01-26T14:41:14.155Z,33.83
2023-01-26T14:43:41.277Z,29.77
2023-01-26T14:46:10.138Z,28.80
2023-01-26T14:48:45.358Z,30.43
2023-01-26T14:51:30.632Z,22.43
2023-01-26T14:53:58.677Z,21.37
2023-01-26T14:56:36.510Z,18.77
2023-01-26T14:59:03.736Z,19.63
2023-01-26T15:01:30.891Z,23.37
2023-01-26T15:03:59.466Z,23.43
2023-01-26T15:06:28.425Z,20.67
2023-01-26T15:08:57.066Z,19.57
2023-01-26T15:11:55.812Z,19.07
2023-01-26T15:14:33.107Z,21.63
2023-01-26T15:17:00.512Z,21.03
2023-01-26T15:19:27.776Z,21.80
2023-01-26T15:21:54.904Z,24.87
2023-01-26T15:24:22.099Z,26.87
2023-01-26T15:26:50.071Z,28.87
2023-01-26T15:29:32.417Z,30.80
2023-01-26T15:31:59.733Z,30.10
2023-01-26T15:34:36.915Z,30.53
2023-01-26T15:37:22.754Z,30.23
2023-01-26T15:39:49.901Z,28.20
2023-01-26T15:42:17.235Z,27.80
2023-01-26T15:44:44.354Z,40.20
2023-01-26T15:47:12.188Z,41.47
2023-01-26T15:49:39.428Z,40.97
2023-01-26T15:52:24.860Z,41.10
2023-01-26T15:54:52.547Z,40.27
2023-01-26T15:57:19.827Z,39.33
2023-01-26T15:59:46.989Z,41.43
2023-01-26T16:02:17.884Z,40.53
2023-01-26T16:04:45.514Z,41.43
2023-01-26T16:07:13.663Z,43.43
2023-01-26T16:09:41.170Z,43.83
2023-01-26T16:12:31.647Z,44.13
2023-01-26T16:14:59.433Z,43.00
2023-01-26T16:17:26.614Z,43.73
2023-01-26T16:19:53.773Z,41.87
2023-01-26T16:22:20.961Z,41.93
2023-01-26T16:24:48.130Z,40.37
2023-01-26T16:27:15.258Z,41.27
2023-01-26T16:29:42.393Z,52.37
2023-01-26T16:32:16.065Z,57.60
2023-01-26T16:34:43.204Z,61.57
2023-01-26T16:37:10.333Z,73.47
2023-01-26T16:39:37.620Z,71.20
2023-01-26T16:42:04.754Z,67.97
2023-01-26T16:44:31.930Z,71.27
2023-01-26T16:46:59.076Z,68.70
2023-01-26T16:49:26.900Z,71.70
2023-01-26T16:51:54.051Z,65.17
2023-01-26T16:54:21.196Z,62.70
2023-01-26T16:56:48.376Z,66.57
2023-01-26T16:59:15.497Z,70.23
2023-01-26T17:01:42.660Z,68.47
2023-01-26T17:04:10.417Z,68.23
2023-01-26T17:06:37.572Z,64.67
2023-01-26T17:09:05.011Z,65.27
2023-01-26T17:11:32.194Z,67.80
2023-01-26T17:13:59.437Z,63.97
2023-01-26T17:16:33.042Z,66.40
2023-01-26T17:19:00.273Z,66.57
2023-01-26T17:21:27.452Z,62.87
2023-01-26T17:23:55.600Z,60.30
2023-01-26T17:26:22.963Z,61.87
2023-01-26T17:28:50.674Z,57.80
2023-01-26T17:31:18.607Z,48.97
2023-01-26T17:33:46.428Z,45.40
2023-01-26T17:36:14.041Z,50.27
2023-01-26T17:38:41.273Z,46.43
2023-01-26T17:41:08.479Z,55.50
2023-01-26T17:43:35.640Z,62.13
2023-01-26T17:46:09.856Z,45.57
2023-01-26T17:48:39.959Z,32.40
2023-01-26T17:51:08.087Z,34.00
2023-01-26T17:53:38.821Z,34.83
2023-01-26T17:56:08.425Z,40.37
2023-01-26T17:58:35.767Z,34.97
2023-01-26T18:01:02.979Z,40.17
2023-01-26T18:03:30.125Z,48.43
2023-01-26T18:05:57.698Z,42.70
2023-01-26T18:08:24.985Z,49.40
2023-01-26T18:10:57.702Z,48.03
2023-01-26T18:13:24.856Z,47.93
2023-01-26T18:15:52.416Z,58.93
2023-01-26T18:18:19.524Z,58.40
2023-01-26T18:20:46.676Z,56.23
2023-01-26T18:23:13.801Z,57.10
2023-01-26T18:25:41.143Z,60.63
2023-01-26T18:28:08.394Z,62.67
2023-01-26T18:30:35.553Z,63.00
2023-01-26T18:33:02.788Z,66.10
2023-01-26T18:35:29.918Z,59.03
2023-01-26T18:37:57.106Z,57.63
2023-01-26T18:40:24.439Z,42.80
2023-01-26T18:42:54.428Z,37.43
2023-01-26T18:45:21.604Z,37.30
2023-01-26T18:47:49.282Z,30.27
2023-01-26T18:50:16.763Z,28.73
2023-01-26T18:52:43.901Z,37.60
2023-01-26T18:55:11.728Z,42.27
2023-01-26T18:57:38.996Z,45.50
2023-01-26T19:00:06.858Z,57.63
2023-01-26T19:02:38.966Z,51.67
2023-01-26T19:05:08.933Z,43.87
2023-01-26T19:07:36.066Z,48.37
2023-01-26T19:10:04.889Z,49.10
2023-01-26T19:12:32.205Z,43.57
2023-01-26T19:14:59.368Z,46.43
2023-01-26T19:17:26.505Z,42.40
2023-01-26T19:19:53.712Z,42.73
2023-01-26T19:22:21.538Z,42.13
2023-01-26T19:24:48.705Z,46.87
2023-01-26T19:27:15.890Z,54.47
2023-01-26T19:29:43.012Z,57.87
2023-01-26T19:32:10.246Z,57.80
2023-01-26T19:34:37.485Z,45.83
2023-01-26T19:37:04.779Z,49.53
2023-01-26T19:39:31.976Z,56.13
2023-01-26T19:41:59.163Z,51.73
2023-01-26T19:44:26.359Z,55.73
2023-01-26T19:46:54.478Z,66.63
2023-01-26T19:49:21.786Z,65.27
2023-01-26T19:51:49.146Z,64.43
2023-01-26T19:54:16.288Z,63.83
2023-01-26T19:56:43.496Z,68.00
2023-01-26T19:59:11.640Z,70.47
2023-01-26T20:01:38.947Z,68.27
2023-01-26T20:04:07.263Z,71.00
2023-01-26T20:06:34.728Z,63.57
2023-01-26T20:09:03.508Z,61.40
2023-01-26T20:11:30.782Z,59.73
2023-01-26T20:13:58.409Z,67.00
2023-01-26T20:16:28.094Z,62.20
2023-01-26T20:18:55.971Z,68.73
2023-01-26T20:21:23.329Z,66.43
2023-01-26T20:23:54.994Z,63.40
2023-01-26T20:26:22.958Z,66.03
2023-01-26T20:28:50.159Z,67.37
2023-01-26T20:31:18.451Z,68.73
2023-01-26T20:33:47.700Z,68.60
2023-01-26T20:36:16.616Z,67.57
2023-01-26T20:38:43.768Z,69.47
2023-01-26T20:41:11.864Z,72.10
2023-01-26T20:43:41.395Z,73.57
2023-01-26T20:46:09.473Z,75.50
2023-01-26T20:48:36.738Z,77.47
2023-01-26T20:51:11.323Z,78.10
2023-01-26T20:53:38.699Z,79.40
2023-01-26T20:56:09.031Z,85.57
2023-01-26T20:58:36.644Z,60.57
2023-01-26T21:01:05.425Z,59.20
2023-01-26T21:03:32.938Z,65.70
2023-01-26T21:06:00.170Z,64.30
2023-01-26T21:08:27.328Z,62.97
2023-01-26T21:10:54.513Z,56.47
2023-01-26T21:13:21.729Z,44.77
2023-01-26T21:15:52.731Z,41.67
2023-01-26T21:18:19.913Z,40.57
2023-01-26T21:20:57.300Z,44.43
2023-01-26T21:23:24.609Z,54.63
2023-01-26T21:25:57.574Z,51.43
2023-01-26T21:28:24.688Z,51.00
2023-01-26T21:31:04.253Z,52.53
2023-01-26T21:33:32.040Z,52.00
2023-01-26T21:35:59.520Z,47.87
2023-01-26T21:38:26.672Z,47.10
2023-01-26T21:41:03.237Z,50.13
2023-01-26T21:43:30.428Z,48.43
2023-01-26T21:45:57.933Z,43.43
2023-01-26T21:48:28.249Z,50.63
2023-01-26T21:51:14.464Z,43.47
2023-01-26T21:53:41.594Z,58.37
2023-01-26T21:56:08.775Z,59.20
2023-01-26T21:58:54.281Z,60.53
2023-01-26T22:01:21.614Z,59.53
2023-01-26T22:03:48.878Z,58.63
2023-01-26T22:06:16.053Z,58.53
2023-01-26T22:08:43.164Z,54.07
2023-01-26T22:11:10.343Z,48.90
2023-01-26T22:13:37.493Z,49.80
2023-01-26T22:16:05.428Z,49.37
2023-01-26T22:18:32.555Z,59.63
2023-01-26T22:20:59.775Z,57.53
2023-01-26T22:23:26.930Z,59.33
2023-01-26T22:25:54.078Z,57.53
2023-01-26T22:28:21.259Z,58.37
2023-01-26T22:30:48.447Z,73.50
2023-01-26T22:33:15.687Z,71.13
2023-01-26T22:35:42.874Z,72.27
2023-01-26T22:38:10.130Z,61.97
2023-01-26T22:40:38.088Z,83.50
2023-01-26T22:43:05.252Z,86.13
2023-01-26T22:45:32.506Z,64.77
2023-01-26T22:47:59.678Z,70.77
2023-01-26T22:50:26.855Z,68.57
2023-01-26T22:52:53.973Z,68.43
2023-01-26T22:55:21.110Z,67.80
2023-01-26T22:57:48.267Z,61.63
2023-01-26T23:00:15.508Z,60.90
2023-01-26T23:02:42.650Z,60.60
2023-01-26T23:05:09.885Z,56.50
2023-01-26T23:07:37.015Z,53.57
2023-01-26T23:10:04.249Z,60.73
2023-01-26T23:12:31.398Z,60.47
2023-01-26T23:14:58.511Z,59.73
2023-01-26T23:17:25.634Z,67.50
2023-01-26T23:19:55.098Z,65.17
2023-01-26T23:22:22.296Z,58.67
2023-01-26T23:25:09.830Z,58.53
2023-01-26T23:27:36.955Z,55.00
2023-01-26T23:30:04.193Z,54.93
2023-01-26T23:32:31.331Z,54.67
2023-01-26T23:34:58.577Z,57.80
2023-01-26T23:37:25.685Z,55.87
2023-01-26T23:39:52.833Z,54.10
2023-01-26T23:42:19.968Z,59.17
2023-01-26T23:44:47.114Z,56.27
2023-01-26T23:47:14.359Z,56.17
2023-01-26T23:49:41.528Z,53.57
2023-01-26T23:52:08.640Z,48.40
2023-01-26T23:54:35.810Z,49.27
2023-01-26T23:57:02.960Z,49.67
2023-01-26T23:59:31.152Z,49.83
